Terminal Aerodrome Forecast
Issued by NWS Twin Cities, MN

Home | Current Version | Previous Version | Text Only | Print | Product List | Glossary On
Versions: 1 2 3 4 5 6 7 8 9 10 11 12 13 14 15 16
000
FTUS43 KMPX 021127
TAFSTC
TAF
KSTC 021127Z 0212/0312 10005KT 6SM BR SCT014 OVC100
     FM021400 16010KT P6SM SCT120
     FM030600 12004KT 6SM BR SKC
     FM030900 13003KT 3SM BR SKC=

USA.gov is the U.S. government's official web portal to all federal, state and local government web resources and services.